Terminal Aerodrome Forecast
Issued by NWS

Home | Current Version | Previous Version | Text Only | Print | Product List | Glossary On
Versions: 1 2 3 4 5 6 7 8 9 10 11 12 13 14 15 16 17 18 19 20 21 22 23 24
000
FTUS43 KDTX 290537
TAFDET
TAF
KDET 290537Z 2906/3006 22008KT P6SM FEW045 BKN100
     FM291500 25008KT 5SM -SHRA BR BKN018 OVC035
     FM292000 29010KT P6SM SCT050 BKN100
     FM300000 32006KT P6SM SCT100=

USA.gov is the U.S. government's official web portal to all federal, state and local government web resources and services.